createdAt,value
2022-12-13T00:01:20.300Z,49.00
2022-12-13T00:03:47.010Z,43.15
2022-12-13T00:06:14.145Z,49.90
2022-12-13T00:08:41.698Z,41.42
2022-12-13T00:11:11.793Z,39.42
2022-12-13T00:13:38.519Z,48.65
2022-12-13T00:16:07.464Z,46.22
2022-12-13T00:18:34.062Z,43.80
2022-12-13T00:21:05.666Z,42.60
2022-12-13T00:23:32.146Z,47.28
2022-12-13T00:26:06.471Z,42.60
2022-12-13T00:28:33.331Z,48.08
2022-12-13T00:31:19.710Z,43.83
2022-12-13T00:33:47.588Z,40.50
2022-12-13T00:36:14.020Z,45.72
2022-12-13T00:38:40.464Z,48.08
2022-12-13T00:41:25.001Z,47.15
2022-12-13T00:43:51.347Z,51.30
2022-12-13T00:46:20.011Z,45.10
2022-12-13T00:48:55.914Z,50.40
2022-12-13T00:51:23.651Z,38.95
2022-12-13T00:53:50.341Z,39.03
2022-12-13T00:56:21.347Z,47.47
2022-12-13T00:58:52.115Z,45.22
2022-12-13T01:01:22.493Z,46.00
2022-12-13T01:03:48.895Z,46.78
2022-12-13T01:06:18.954Z,41.03
2022-12-13T01:08:46.206Z,43.00
2022-12-13T01:11:13.692Z,47.45
2022-12-13T01:13:40.753Z,41.28
2022-12-13T01:16:09.442Z,45.95
2022-12-13T01:18:36.527Z,43.35
2022-12-13T01:21:11.697Z,38.03
2022-12-13T01:23:38.435Z,41.95
2022-12-13T01:26:06.973Z,36.85
2022-12-13T01:28:33.413Z,37.53
2022-12-13T01:31:05.754Z,46.40
2022-12-13T01:33:32.767Z,40.60
2022-12-13T01:36:04.559Z,44.70
2022-12-13T01:38:31.509Z,42.03
2022-12-13T01:41:16.935Z,42.05
2022-12-13T01:43:44.361Z,45.05
2022-12-13T01:46:11.529Z,49.70
2022-12-13T01:48:44.617Z,45.72
2022-12-13T01:51:14.787Z,42.50
2022-12-13T01:53:44.276Z,33.05
2022-12-13T01:56:16.913Z,34.70
2022-12-13T01:58:43.922Z,39.70
2022-12-13T02:04:00.743Z,40.33
2022-12-13T02:06:57.415Z,42.55
2022-12-13T02:09:24.081Z,45.00
2022-12-13T02:11:51.618Z,47.97
2022-12-13T02:14:17.989Z,48.47
2022-12-13T02:17:08.418Z,47.13
2022-12-13T02:20:11.094Z,47.50
2022-12-13T02:23:08.036Z,42.70
2022-12-13T02:25:55.327Z,42.13
2022-12-13T02:28:33.726Z,42.65
2022-12-13T02:31:29.794Z,36.72
2022-12-13T02:34:04.406Z,48.05
2022-12-13T02:36:56.332Z,46.92
2022-12-13T02:39:32.158Z,44.10
2022-12-13T02:42:02.895Z,43.72
2022-12-13T02:44:39.798Z,55.22
2022-12-13T02:47:21.986Z,46.33
2022-12-13T02:49:52.658Z,48.00
2022-12-13T02:52:23.837Z,42.72
2022-12-13T02:54:50.261Z,45.60
2022-12-13T02:57:33.062Z,48.75
2022-12-13T03:00:05.745Z,53.83
2022-12-13T03:02:35.062Z,41.53
2022-12-13T03:05:45.678Z,47.95
2022-12-13T03:08:25.682Z,50.00
2022-12-13T03:10:56.651Z,44.30
2022-12-13T03:13:36.711Z,46.63
2022-12-13T03:16:27.947Z,47.38
2022-12-13T03:18:58.975Z,43.28
2022-12-13T03:21:26.126Z,46.42
2022-12-13T03:23:52.893Z,47.70
2022-12-13T03:26:26.781Z,49.28
2022-12-13T03:28:53.721Z,43.13
2022-12-13T03:31:20.270Z,41.15
2022-12-13T03:33:46.873Z,55.47
2022-12-13T03:36:13.745Z,39.45
2022-12-13T03:38:40.626Z,37.17
2022-12-13T03:41:10.801Z,45.28
2022-12-13T03:43:37.538Z,41.22
2022-12-13T03:46:04.079Z,43.97
2022-12-13T03:48:30.494Z,43.95
2022-12-13T03:50:57.219Z,39.55
2022-12-13T03:53:33.416Z,39.67
2022-12-13T03:56:05.482Z,35.65
2022-12-13T03:58:37.773Z,47.33
2022-12-13T04:01:06.766Z,42.08
2022-12-13T04:03:33.257Z,44.97
2022-12-13T04:05:59.655Z,42.22
2022-12-13T04:08:26.126Z,39.15
2022-12-13T04:10:52.609Z,44.58
2022-12-13T04:13:34.278Z,43.40
2022-12-13T04:16:02.411Z,41.10
2022-12-13T04:18:29.110Z,42.30
2022-12-13T04:20:55.537Z,48.65
2022-12-13T04:23:21.889Z,46.60
2022-12-13T04:25:48.339Z,36.67
2022-12-13T04:28:22.067Z,47.00
2022-12-13T04:30:53.012Z,39.63
2022-12-13T04:33:22.173Z,39.13
2022-12-13T04:35:49.297Z,47.70
2022-12-13T04:38:16.177Z,48.47
2022-12-13T04:40:42.620Z,42.10
2022-12-13T04:43:09.631Z,49.65
2022-12-13T04:45:36.082Z,41.15
2022-12-13T04:48:02.562Z,42.20
2022-12-13T04:50:28.925Z,42.10
2022-12-13T04:52:55.597Z,43.03
2022-12-13T04:55:22.077Z,40.60
2022-12-13T04:57:48.479Z,43.50
2022-12-13T05:00:15.293Z,43.40
2022-12-13T05:02:42.185Z,42.40
2022-12-13T05:05:11.789Z,53.33
2022-12-13T05:07:41.863Z,45.20
2022-12-13T05:10:10.816Z,36.85
2022-12-13T05:12:37.262Z,38.20
2022-12-13T05:15:04.104Z,38.60
2022-12-13T05:17:30.573Z,39.60
2022-12-13T05:19:56.922Z,35.10
2022-12-13T05:22:23.325Z,33.67
2022-12-13T05:24:49.818Z,37.60
2022-12-13T05:27:24.612Z,35.03
2022-12-13T05:30:03.369Z,33.45
2022-12-13T05:32:42.609Z,40.05
2022-12-13T05:35:23.459Z,34.50
2022-12-13T05:37:54.795Z,36.88
2022-12-13T05:40:22.978Z,36.72
2022-12-13T05:42:49.445Z,37.15
2022-12-13T05:45:17.712Z,37.03
2022-12-13T05:47:44.410Z,46.65
2022-12-13T05:50:11.429Z,39.38
2022-12-13T05:52:38.044Z,34.47
2022-12-13T05:55:04.962Z,33.75
2022-12-13T05:57:32.156Z,31.85
2022-12-13T06:00:00.565Z,33.30
2022-12-13T06:02:27.098Z,30.38
2022-12-13T06:04:53.764Z,31.50
2022-12-13T06:07:20.157Z,37.72
2022-12-13T06:09:46.506Z,38.75
2022-12-13T06:12:31.887Z,36.17
2022-12-13T06:15:01.132Z,36.65
2022-12-13T06:17:35.305Z,31.08
2022-12-13T06:20:01.963Z,36.88
2022-12-13T06:22:28.657Z,37.25
2022-12-13T06:24:55.163Z,38.75
2022-12-13T06:27:21.770Z,32.17
2022-12-13T06:29:48.215Z,27.60
2022-12-13T06:32:14.766Z,34.25
2022-12-13T06:34:41.144Z,33.85
2022-12-13T06:37:11.015Z,32.33
2022-12-13T06:39:37.401Z,30.40
2022-12-13T06:42:06.393Z,36.42
2022-12-13T06:44:33.597Z,34.72
2022-12-13T06:47:10.478Z,33.90
2022-12-13T06:49:39.534Z,39.20
2022-12-13T06:52:08.263Z,29.70
2022-12-13T06:54:35.365Z,29.75
2022-12-13T06:57:01.976Z,32.63
2022-12-13T06:59:28.396Z,30.35
2022-12-13T07:01:54.910Z,31.98
2022-12-13T07:04:31.202Z,30.85
2022-12-13T07:07:00.978Z,34.03
2022-12-13T07:09:32.588Z,31.52
2022-12-13T07:11:59.674Z,41.35
2022-12-13T07:14:26.295Z,28.83
2022-12-13T07:16:56.624Z,31.20
2022-12-13T07:19:27.674Z,40.03
2022-12-13T07:22:02.404Z,31.58
2022-12-13T07:24:28.768Z,26.20
2022-12-13T07:26:55.152Z,22.27
2022-12-13T07:29:22.239Z,33.67
2022-12-13T07:31:49.384Z,26.73
2022-12-13T07:34:15.941Z,29.92
2022-12-13T07:36:42.367Z,32.45
2022-12-13T07:39:08.910Z,29.08
2022-12-13T07:41:35.288Z,30.95
2022-12-13T07:44:01.615Z,31.73
2022-12-13T07:46:32.576Z,37.70
2022-12-13T07:49:02.626Z,26.65
2022-12-13T07:51:29.010Z,29.55
2022-12-13T07:53:55.403Z,29.83
2022-12-13T07:56:21.740Z,38.70
2022-12-13T07:58:48.184Z,31.85
2022-12-13T08:01:14.639Z,34.63
2022-12-13T08:03:41.015Z,28.27
2022-12-13T08:06:12.266Z,28.10
2022-12-13T08:08:39.120Z,29.23
2022-12-13T08:11:11.279Z,34.63
2022-12-13T08:13:38.942Z,35.30
2022-12-13T08:16:26.127Z,33.92
2022-12-13T08:19:03.190Z,33.53
2022-12-13T08:21:58.820Z,37.80
2022-12-13T08:24:29.823Z,34.42
2022-12-13T08:27:01.081Z,33.53
2022-12-13T08:29:33.912Z,35.72
2022-12-13T08:32:08.244Z,36.72
2022-12-13T08:34:34.758Z,35.22
2022-12-13T08:37:03.229Z,41.30
2022-12-13T08:39:34.159Z,39.00
2022-12-13T08:42:17.021Z,30.77
2022-12-13T08:44:52.461Z,34.17
2022-12-13T08:47:25.899Z,35.53
2022-12-13T08:49:54.515Z,35.50
2022-12-13T08:52:22.622Z,32.85
2022-12-13T08:54:49.320Z,35.40
2022-12-13T08:57:15.713Z,44.13
2022-12-13T08:59:42.208Z,37.50
2022-12-13T09:02:13.912Z,36.58
2022-12-13T09:04:40.393Z,35.03
2022-12-13T09:07:07.710Z,32.85
2022-12-13T09:09:34.125Z,36.58
2022-12-13T09:12:00.528Z,36.95
2022-12-13T09:14:33.769Z,33.28
2022-12-13T09:17:02.895Z,37.97
2022-12-13T09:19:37.154Z,28.85
2022-12-13T09:22:04.199Z,31.70
2022-12-13T09:24:36.557Z,38.92
2022-12-13T09:27:09.179Z,32.60
2022-12-13T09:29:37.189Z,34.05
2022-12-13T09:32:04.085Z,33.35
2022-12-13T09:34:30.616Z,31.08
2022-12-13T09:37:01.753Z,40.50
2022-12-13T09:39:28.713Z,32.28
2022-12-13T09:42:00.764Z,38.38
2022-12-13T09:44:43.668Z,29.52
2022-12-13T09:47:37.863Z,31.02
2022-12-13T09:50:20.167Z,28.48
2022-12-13T09:52:52.245Z,34.53
2022-12-13T09:55:32.296Z,31.30
2022-12-13T09:58:05.456Z,36.80
2022-12-13T10:00:36.376Z,29.92
2022-12-13T10:03:03.083Z,31.35
2022-12-13T10:05:34.269Z,27.05
2022-12-13T10:08:13.956Z,30.20
2022-12-13T10:10:40.884Z,27.38
2022-12-13T10:13:13.380Z,35.10
2022-12-13T10:15:53.659Z,28.88
2022-12-13T10:18:41.554Z,29.13
2022-12-13T10:21:18.330Z,32.40
2022-12-13T10:24:22.808Z,27.48
2022-12-13T10:26:37.905Z,28.35
2022-12-13T10:29:05.575Z,25.33
2022-12-13T10:31:56.248Z,31.38
2022-12-13T10:34:35.546Z,36.33
2022-12-13T10:37:30.710Z,33.88
2022-12-13T10:39:58.641Z,31.42
2022-12-13T10:42:30.515Z,37.85
2022-12-13T10:45:23.712Z,30.58
2022-12-13T10:47:50.689Z,25.60
2022-12-13T10:50:28.630Z,37.17
2022-12-13T10:52:59.797Z,30.00
2022-12-13T10:55:32.505Z,31.05
2022-12-13T10:58:09.952Z,33.55
2022-12-13T11:00:38.969Z,29.13
2022-12-13T11:03:06.852Z,36.45
2022-12-13T11:05:35.899Z,35.92
2022-12-13T11:08:26.681Z,29.08
2022-12-13T11:10:59.112Z,32.58
2022-12-13T11:13:34.772Z,29.48
2022-12-13T11:16:01.816Z,29.85
2022-12-13T11:18:37.174Z,25.40
2022-12-13T11:21:07.494Z,24.63
2022-12-13T11:23:39.413Z,39.53
2022-12-13T11:26:24.402Z,29.73
2022-12-13T11:29:12.785Z,26.83
2022-12-13T11:32:02.597Z,21.95
2022-12-13T11:34:51.781Z,25.50
2022-12-13T11:37:41.370Z,26.80
2022-12-13T11:40:14.345Z,24.85
2022-12-13T11:42:55.710Z,24.98
2022-12-13T11:45:27.631Z,21.60
2022-12-13T11:47:58.488Z,22.48
2022-12-13T11:50:34.557Z,24.30
2022-12-13T11:53:16.811Z,20.45
2022-12-13T11:55:52.757Z,24.42
2022-12-13T11:59:02.359Z,20.98
2022-12-13T12:01:32.231Z,27.30
2022-12-13T12:07:24.455Z,24.25
2022-12-13T12:09:58.302Z,26.30
2022-12-13T12:12:35.111Z,31.33
2022-12-13T12:15:17.874Z,22.90
2022-12-13T12:17:54.641Z,20.58
2022-12-13T12:20:36.202Z,24.55
2022-12-13T12:23:16.499Z,22.10
2022-12-13T12:25:42.792Z,18.35
2022-12-13T12:28:28.518Z,22.42
2022-12-13T12:31:10.481Z,22.33
2022-12-13T12:33:50.987Z,23.63
2022-12-13T12:36:49.680Z,20.10
2022-12-13T12:39:26.193Z,23.90
2022-12-13T12:42:22.493Z,20.33
2022-12-13T12:44:48.793Z,19.05
2022-12-13T12:50:53.504Z,22.80
2022-12-13T12:53:30.629Z,15.57
2022-12-13T12:56:02.738Z,19.38
2022-12-13T12:58:29.529Z,19.25
2022-12-13T13:01:05.870Z,18.33
2022-12-13T13:03:36.475Z,16.73
2022-12-13T13:06:29.835Z,19.38
2022-12-13T13:09:02.209Z,16.17
2022-12-13T13:11:34.109Z,18.25
2022-12-13T13:14:28.361Z,19.67
2022-12-13T13:16:55.717Z,13.25
2022-12-13T13:19:31.170Z,18.25
2022-12-13T13:22:01.520Z,19.00
2022-12-13T13:24:31.597Z,24.90
2022-12-13T13:27:10.010Z,15.70
2022-12-13T13:29:43.177Z,16.50
2022-12-13T13:32:12.769Z,17.65
2022-12-13T13:37:43.881Z,19.67
2022-12-13T13:40:13.091Z,18.13
2022-12-13T13:43:08.367Z,16.27
2022-12-13T13:45:50.027Z,19.73
2022-12-13T13:48:50.383Z,21.67
2022-12-13T13:51:54.921Z,21.17
2022-12-13T13:54:54.750Z,23.52
2022-12-13T13:58:08.153Z,26.55
2022-12-13T14:00:49.123Z,19.83
2022-12-13T14:04:12.600Z,18.83
2022-12-13T14:07:00.670Z,14.63
2022-12-13T14:09:45.859Z,15.25
2022-12-13T14:12:18.246Z,22.50
2022-12-13T14:15:06.026Z,29.92
2022-12-13T14:18:21.214Z,20.20
2022-12-13T14:21:06.193Z,21.13
2022-12-13T14:24:03.469Z,17.35
2022-12-13T14:26:59.585Z,21.88
2022-12-13T14:29:33.300Z,17.52
2022-12-13T14:32:00.283Z,20.42
2022-12-13T14:34:30.040Z,26.17
2022-12-13T14:37:05.476Z,25.73
2022-12-13T14:39:36.476Z,22.63
2022-12-13T14:42:21.987Z,21.15
2022-12-13T14:44:48.647Z,17.50
2022-12-13T14:47:14.985Z,24.98
2022-12-13T14:49:48.797Z,31.98
2022-12-13T14:52:25.932Z,24.67
2022-12-13T14:54:57.909Z,20.40
2022-12-13T14:57:27.399Z,19.40
2022-12-13T14:59:56.176Z,20.35
2022-12-13T15:02:31.861Z,21.20
2022-12-13T15:05:00.824Z,20.92
2022-12-13T15:07:39.201Z,20.73
2022-12-13T15:10:14.815Z,16.13
2022-12-13T15:12:43.397Z,21.92
2022-12-13T15:15:27.246Z,19.48
2022-12-13T15:18:18.314Z,23.63
2022-12-13T15:20:46.459Z,18.20
2022-12-13T15:23:35.838Z,20.83
2022-12-13T15:26:12.104Z,22.67
2022-12-13T15:28:47.230Z,17.63
2022-12-13T15:31:19.930Z,19.58
2022-12-13T15:33:48.546Z,20.73
2022-12-13T15:36:28.901Z,20.02
2022-12-13T15:38:55.238Z,25.02
2022-12-13T15:41:36.697Z,21.83
2022-12-13T15:44:15.319Z,23.25
2022-12-13T15:46:45.993Z,21.92
2022-12-13T15:49:26.923Z,24.80
2022-12-13T15:51:58.511Z,22.45
2022-12-13T15:54:25.036Z,47.58
2022-12-13T15:57:13.955Z,41.05
2022-12-13T15:59:41.334Z,26.48
2022-12-13T16:02:20.327Z,35.35
2022-12-13T16:04:47.190Z,37.53
2022-12-13T16:07:37.554Z,28.15
2022-12-13T16:10:05.303Z,25.00
2022-12-13T16:12:48.365Z,15.45
2022-12-13T16:15:20.398Z,23.55
2022-12-13T16:18:06.396Z,16.95
2022-12-13T16:20:33.080Z,25.23
2022-12-13T16:23:00.069Z,18.45
2022-12-13T16:25:34.973Z,21.33
2022-12-13T16:28:01.483Z,21.73
2022-12-13T16:30:48.741Z,24.70
2022-12-13T16:33:26.928Z,16.95
2022-12-13T16:35:55.301Z,18.42
2022-12-13T16:38:26.780Z,20.55
2022-12-13T16:40:55.961Z,20.42
2022-12-13T16:43:32.996Z,21.70
2022-12-13T16:47:13.153Z,23.20
2022-12-13T16:48:50.024Z,17.83
2022-12-13T16:51:16.451Z,24.58
2022-12-13T16:53:43.719Z,26.33
2022-12-13T16:56:11.438Z,20.10
2022-12-13T16:58:37.908Z,21.33
2022-12-13T17:01:12.625Z,19.20
2022-12-13T17:03:39.547Z,26.63
2022-12-13T17:06:08.288Z,22.35
2022-12-13T17:08:34.615Z,16.73
2022-12-13T17:11:01.059Z,21.40
2022-12-13T17:13:30.363Z,20.75
2022-12-13T17:15:58.933Z,22.40
2022-12-13T17:18:26.046Z,26.83
2022-12-13T17:20:58.116Z,19.88
2022-12-13T17:23:26.363Z,21.90
2022-12-13T17:25:58.275Z,29.13
2022-12-13T17:28:25.088Z,26.45
2022-12-13T17:30:54.991Z,18.75
2022-12-13T17:33:22.141Z,20.02
2022-12-13T17:35:48.683Z,18.67
2022-12-13T17:38:15.066Z,21.13
2022-12-13T17:40:41.663Z,16.60
2022-12-13T17:43:09.485Z,23.15
2022-12-13T17:45:42.763Z,22.92
2022-12-13T17:48:09.146Z,23.58
2022-12-13T17:50:37.997Z,20.00
2022-12-13T17:53:04.409Z,25.83
2022-12-13T17:55:31.508Z,28.33
2022-12-13T17:58:04.133Z,28.50
2022-12-13T18:00:30.950Z,18.38
2022-12-13T18:02:57.427Z,22.10
2022-12-13T18:05:26.975Z,23.70
2022-12-13T18:07:53.351Z,24.85
2022-12-13T18:10:22.486Z,20.17
2022-12-13T18:12:51.417Z,21.17
2022-12-13T18:15:17.877Z,19.33
2022-12-13T18:18:10.528Z,19.98
2022-12-13T18:20:31.085Z,22.08
2022-12-13T18:22:57.613Z,20.00
2022-12-13T18:25:24.287Z,25.08
2022-12-13T18:27:52.169Z,15.70
2022-12-13T18:30:21.946Z,20.67
2022-12-13T18:32:48.370Z,21.13
2022-12-13T18:35:14.967Z,22.55
2022-12-13T18:37:41.382Z,22.55
2022-12-13T18:40:08.417Z,17.35
2022-12-13T18:42:35.155Z,20.13
2022-12-13T18:45:01.608Z,17.30
2022-12-13T18:47:30.491Z,18.15
2022-12-13T18:49:57.175Z,22.08
2022-12-13T18:52:23.800Z,18.98
2022-12-13T18:54:54.217Z,23.10
2022-12-13T18:57:21.310Z,48.85
2022-12-13T18:59:54.835Z,72.38
2022-12-13T19:02:21.541Z,26.02
2022-12-13T19:04:54.930Z,29.85
2022-12-13T19:07:22.440Z,22.58
2022-12-13T19:09:54.545Z,25.20
2022-12-13T19:12:21.886Z,23.70
2022-12-13T19:14:55.702Z,18.45
2022-12-13T19:17:22.079Z,21.58
2022-12-13T19:19:48.610Z,22.65
2022-12-13T19:22:15.842Z,15.05
2022-12-13T19:24:42.375Z,20.05
2022-12-13T19:27:08.900Z,18.10
2022-12-13T19:29:35.275Z,28.92
2022-12-13T19:32:01.898Z,22.88
2022-12-13T19:34:28.374Z,29.60
2022-12-13T19:36:54.758Z,29.25
2022-12-13T19:39:21.200Z,31.40
2022-12-13T19:41:47.641Z,19.60
2022-12-13T19:44:14.070Z,20.98
2022-12-13T19:46:40.625Z,23.83
2022-12-13T19:49:07.016Z,20.00
2022-12-13T19:51:39.260Z,20.02
2022-12-13T19:54:06.374Z,18.70
2022-12-13T19:56:32.790Z,19.20
2022-12-13T19:58:59.216Z,30.73
2022-12-13T20:01:25.716Z,18.77
2022-12-13T20:03:52.338Z,27.23
2022-12-13T20:06:21.655Z,25.90
2022-12-13T20:08:48.812Z,26.55
2022-12-13T20:11:19.351Z,21.70
2022-12-13T20:13:47.564Z,28.88
2022-12-13T20:16:17.678Z,48.28
2022-12-13T20:18:44.761Z,46.22
2022-12-13T20:21:14.474Z,42.92
2022-12-13T20:23:49.208Z,34.58
2022-12-13T20:26:20.164Z,32.60
2022-12-13T20:28:46.750Z,22.88
2022-12-13T20:31:19.924Z,18.27
2022-12-13T20:33:47.154Z,19.02
2022-12-13T20:36:27.154Z,34.10
2022-12-13T20:38:59.468Z,18.02
2022-12-13T20:41:28.714Z,26.55
2022-12-13T20:43:57.063Z,19.08
2022-12-13T20:46:25.723Z,17.63
2022-12-13T20:48:53.154Z,16.38
2022-12-13T20:51:22.591Z,18.50
2022-12-13T20:53:50.554Z,18.52
2022-12-13T20:56:20.191Z,21.80
2022-12-13T20:58:47.019Z,23.52
2022-12-13T21:01:15.879Z,16.10
2022-12-13T21:03:42.433Z,16.58
2022-12-13T21:06:09.078Z,16.75
2022-12-13T21:08:59.838Z,16.33
2022-12-13T21:11:30.807Z,18.63
2022-12-13T21:14:08.868Z,27.90
2022-12-13T21:16:52.238Z,26.63
2022-12-13T21:19:24.690Z,22.88
2022-12-13T21:21:52.819Z,20.02
2022-12-13T21:24:23.313Z,26.75
2022-12-13T21:26:51.096Z,34.58
2022-12-13T21:29:18.819Z,26.30
2022-12-13T21:31:49.772Z,27.35
2022-12-13T21:34:17.773Z,23.05
2022-12-13T21:36:49.016Z,22.08
2022-12-13T21:39:18.469Z,19.23
2022-12-13T21:41:45.461Z,18.77
2022-12-13T21:44:14.149Z,23.83
2022-12-13T21:47:10.641Z,22.27
2022-12-13T21:49:28.018Z,22.23
2022-12-13T21:51:55.017Z,24.05
2022-12-13T21:54:22.596Z,19.67
2022-12-13T21:57:07.433Z,15.75
2022-12-13T21:59:33.801Z,19.65
2022-12-13T22:02:11.731Z,16.70
2022-12-13T22:04:38.200Z,16.63
2022-12-13T22:07:06.706Z,21.25
2022-12-13T22:09:34.220Z,26.65
2022-12-13T22:12:00.892Z,28.45
2022-12-13T22:14:27.782Z,30.38
2022-12-13T22:16:54.252Z,25.15
2022-12-13T22:19:20.672Z,24.30
2022-12-13T22:21:47.113Z,19.42
2022-12-13T22:24:13.799Z,23.65
2022-12-13T22:26:40.667Z,24.35
2022-12-13T22:29:07.577Z,18.25
2022-12-13T22:31:33.992Z,24.55
2022-12-13T22:34:00.536Z,22.17
2022-12-13T22:36:26.894Z,20.38
2022-12-13T22:38:53.418Z,24.85
2022-12-13T22:41:19.794Z,23.08
2022-12-13T22:43:46.240Z,21.63
2022-12-13T22:46:17.886Z,18.45
2022-12-13T22:48:44.602Z,20.67
2022-12-13T22:51:13.661Z,18.17
2022-12-13T22:53:41.486Z,19.70
2022-12-13T22:56:13.693Z,18.52
2022-12-13T22:58:40.848Z,19.20
2022-12-13T23:01:19.179Z,16.48
2022-12-13T23:03:46.540Z,15.57
2022-12-13T23:06:21.636Z,21.95
2022-12-13T23:08:56.846Z,11.57
2022-12-13T23:11:42.541Z,16.20
2022-12-13T23:14:11.331Z,11.80
2022-12-13T23:16:38.420Z,15.45
2022-12-13T23:19:39.888Z,10.73
2022-12-13T23:21:54.170Z,15.18
2022-12-13T23:24:20.630Z,14.10
2022-12-13T23:26:47.138Z,12.30
2022-12-13T23:29:13.573Z,16.08
2022-12-13T23:31:42.001Z,9.73
2022-12-13T23:34:09.685Z,11.63
2022-12-13T23:36:37.347Z,10.80
2022-12-13T23:39:06.224Z,9.30
2022-12-13T23:41:34.145Z,9.95
2022-12-13T23:44:01.347Z,9.55
2022-12-13T23:46:30.524Z,11.52
2022-12-13T23:48:58.206Z,12.52
2022-12-13T23:51:25.739Z,12.00
2022-12-13T23:53:53.353Z,10.77
2022-12-13T23:56:20.562Z,12.85
2022-12-13T23:58:47.837Z,8.23
